sensor_id;sensor_type;location;lat;lon;timestamp;pressure;altitude;pressure_sealevel;temperature;humidity
11830;BME280;5972;42.134;24.718;2023-11-22T00:01:03;99049.25;;;9.46;100.00
11830;BME280;5972;42.134;24.718;2023-11-22T00:03:30;99062.84;;;9.66;100.00
11830;BME280;5972;42.134;24.718;2023-11-22T00:05:57;99054.81;;;9.53;100.00
11830;BME280;5972;42.134;24.718;2023-11-22T00:08:24;99058.75;;;9.56;100.00
11830;BME280;5972;42.134;24.718;2023-11-22T00:10:51;99053.69;;;9.54;100.00
11830;BME280;5972;42.134;24.718;2023-11-22T00:13:18;99063.38;;;9.55;100.00
11830;BME280;5972;42.134;24.718;2023-11-22T00:15:45;99048.13;;;9.63;100.00
11830;BME280;5972;42.134;24.718;2023-11-22T00:18:13;99049.78;;;9.68;100.00
11830;BME280;5972;42.134;24.718;2023-11-22T00:20:40;99051.69;;;9.67;100.00
11830;BME280;5972;42.134;24.718;2023-11-22T00:23:07;99049.06;;;9.71;100.00
11830;BME280;5972;42.134;24.718;2023-11-22T00:25:35;99038.53;;;9.66;100.00
11830;BME280;5972;42.134;24.718;2023-11-22T00:28:02;99025.81;;;9.66;100.00
11830;BME280;5972;42.134;24.718;2023-11-22T00:30:31;99044.38;;;9.68;100.00
11830;BME280;5972;42.134;24.718;2023-11-22T00:32:58;99056.50;;;9.74;100.00
11830;BME280;5972;42.134;24.718;2023-11-22T00:35:26;99064.59;;;9.74;100.00
11830;BME280;5972;42.134;24.718;2023-11-22T00:37:53;99038.97;;;9.68;100.00
11830;BME280;5972;42.134;24.718;2023-11-22T00:40:20;99042.34;;;9.65;100.00
11830;BME280;5972;42.134;24.718;2023-11-22T00:42:47;99035.94;;;9.69;100.00
11830;BME280;5972;42.134;24.718;2023-11-22T00:45:14;99029.13;;;9.59;100.00
11830;BME280;5972;42.134;24.718;2023-11-22T00:47:41;99029.03;;;9.56;100.00
11830;BME280;5972;42.134;24.718;2023-11-22T00:50:08;99015.47;;;9.52;100.00
11830;BME280;5972;42.134;24.718;2023-11-22T00:52:37;99040.53;;;9.69;100.00
11830;BME280;5972;42.134;24.718;2023-11-22T00:55:05;99036.34;;;9.71;100.00
11830;BME280;5972;42.134;24.718;2023-11-22T00:57:31;99046.53;;;9.78;100.00
11830;BME280;5972;42.134;24.718;2023-11-22T00:59:58;99021.97;;;9.67;100.00
11830;BME280;5972;42.134;24.718;2023-11-22T01:02:25;99045.50;;;9.82;100.00
11830;BME280;5972;42.134;24.718;2023-11-22T01:04:52;99040.28;;;9.74;100.00
11830;BME280;5972;42.134;24.718;2023-11-22T01:07:19;99027.91;;;9.73;100.00
11830;BME280;5972;42.134;24.718;2023-11-22T01:09:47;99022.06;;;9.71;100.00
11830;BME280;5972;42.134;24.718;2023-11-22T01:12:14;99024.75;;;9.71;100.00
11830;BME280;5972;42.134;24.718;2023-11-22T01:14:41;99023.91;;;9.67;100.00
11830;BME280;5972;42.134;24.718;2023-11-22T01:17:08;99026.53;;;9.63;100.00
11830;BME280;5972;42.134;24.718;2023-11-22T01:19:35;99022.75;;;9.68;100.00
11830;BME280;5972;42.134;24.718;2023-11-22T01:22:03;99034.09;;;9.73;100.00
11830;BME280;5972;42.134;24.718;2023-11-22T01:24:30;99030.59;;;9.73;100.00
11830;BME280;5972;42.134;24.718;2023-11-22T01:26:58;99009.16;;;9.64;100.00
11830;BME280;5972;42.134;24.718;2023-11-22T01:29:25;99032.06;;;9.70;100.00
11830;BME280;5972;42.134;24.718;2023-11-22T01:31:52;99029.91;;;9.60;100.00
11830;BME280;5972;42.134;24.718;2023-11-22T01:34:19;99029.28;;;9.67;100.00
11830;BME280;5972;42.134;24.718;2023-11-22T01:36:45;99027.03;;;9.69;100.00
11830;BME280;5972;42.134;24.718;2023-11-22T01:39:12;99023.63;;;9.72;100.00
11830;BME280;5972;42.134;24.718;2023-11-22T01:41:40;99017.44;;;9.71;100.00
11830;BME280;5972;42.134;24.718;2023-11-22T01:44:09;99007.69;;;9.67;100.00
11830;BME280;5972;42.134;24.718;2023-11-22T01:46:37;99013.94;;;9.71;100.00
11830;BME280;5972;42.134;24.718;2023-11-22T01:49:04;99014.03;;;9.58;100.00
11830;BME280;5972;42.134;24.718;2023-11-22T01:51:31;99010.22;;;9.59;100.00
11830;BME280;5972;42.134;24.718;2023-11-22T01:53:58;98999.59;;;9.51;100.00
11830;BME280;5972;42.134;24.718;2023-11-22T01:56:26;99011.44;;;9.62;100.00
11830;BME280;5972;42.134;24.718;2023-11-22T01:58:55;99006.91;;;9.66;100.00
11830;BME280;5972;42.134;24.718;2023-11-22T02:01:25;99001.41;;;9.63;100.00
11830;BME280;5972;42.134;24.718;2023-11-22T02:03:52;99001.50;;;9.66;100.00
11830;BME280;5972;42.134;24.718;2023-11-22T02:06:19;98994.59;;;9.53;100.00
11830;BME280;5972;42.134;24.718;2023-11-22T02:08:48;99000.78;;;9.53;100.00
11830;BME280;5972;42.134;24.718;2023-11-22T02:11:17;99002.81;;;9.56;100.00
11830;BME280;5972;42.134;24.718;2023-11-22T02:13:47;99001.16;;;9.52;100.00
11830;BME280;5972;42.134;24.718;2023-11-22T02:16:15;99003.25;;;9.43;100.00
11830;BME280;5972;42.134;24.718;2023-11-22T02:18:44;99001.91;;;9.21;100.00
11830;BME280;5972;42.134;24.718;2023-11-22T02:21:11;99000.28;;;9.16;100.00
11830;BME280;5972;42.134;24.718;2023-11-22T02:23:39;98995.03;;;9.08;100.00
11830;BME280;5972;42.134;24.718;2023-11-22T02:26:07;98990.34;;;9.21;100.00
11830;BME280;5972;42.134;24.718;2023-11-22T02:28:34;98986.84;;;9.20;100.00
11830;BME280;5972;42.134;24.718;2023-11-22T02:31:01;98959.25;;;8.95;100.00
11830;BME280;5972;42.134;24.718;2023-11-22T02:33:28;98995.84;;;9.24;100.00
11830;BME280;5972;42.134;24.718;2023-11-22T02:35:55;98995.22;;;9.31;100.00
11830;BME280;5972;42.134;24.718;2023-11-22T02:38:22;98994.88;;;9.32;100.00
11830;BME280;5972;42.134;24.718;2023-11-22T02:40:50;98983.75;;;9.34;100.00
11830;BME280;5972;42.134;24.718;2023-11-22T02:43:18;98985.38;;;9.38;100.00
11830;BME280;5972;42.134;24.718;2023-11-22T02:45:44;98967.09;;;9.32;100.00
11830;BME280;5972;42.134;24.718;2023-11-22T02:48:11;98985.72;;;9.37;100.00
11830;BME280;5972;42.134;24.718;2023-11-22T02:50:39;98999.16;;;9.33;100.00
11830;BME280;5972;42.134;24.718;2023-11-22T02:53:09;98992.44;;;9.27;100.00
11830;BME280;5972;42.134;24.718;2023-11-22T02:55:35;98986.44;;;9.34;100.00
11830;BME280;5972;42.134;24.718;2023-11-22T02:58:04;98988.88;;;9.39;100.00
11830;BME280;5972;42.134;24.718;2023-11-22T03:00:31;98994.28;;;9.39;100.00
11830;BME280;5972;42.134;24.718;2023-11-22T03:03:00;99011.59;;;9.53;100.00
11830;BME280;5972;42.134;24.718;2023-11-22T03:05:29;99014.22;;;9.50;100.00
11830;BME280;5972;42.134;24.718;2023-11-22T03:07:55;99004.13;;;9.47;100.00
11830;BME280;5972;42.134;24.718;2023-11-22T03:10:23;98999.25;;;9.52;100.00
11830;BME280;5972;42.134;24.718;2023-11-22T03:12:50;98996.91;;;9.35;100.00
11830;BME280;5972;42.134;24.718;2023-11-22T03:15:19;98997.06;;;9.27;100.00
11830;BME280;5972;42.134;24.718;2023-11-22T03:17:46;99000.00;;;9.22;100.00
11830;BME280;5972;42.134;24.718;2023-11-22T03:20:14;98988.69;;;9.16;100.00
11830;BME280;5972;42.134;24.718;2023-11-22T03:22:42;98991.31;;;9.12;100.00
11830;BME280;5972;42.134;24.718;2023-11-22T03:25:10;98970.59;;;9.16;100.00
11830;BME280;5972;42.134;24.718;2023-11-22T03:27:37;98952.47;;;9.17;100.00
11830;BME280;5972;42.134;24.718;2023-11-22T03:30:05;98961.03;;;9.19;100.00
11830;BME280;5972;42.134;24.718;2023-11-22T03:32:38;98962.56;;;9.20;100.00
11830;BME280;5972;42.134;24.718;2023-11-22T03:35:05;98942.72;;;9.12;100.00
11830;BME280;5972;42.134;24.718;2023-11-22T03:37:32;98966.94;;;9.25;100.00
11830;BME280;5972;42.134;24.718;2023-11-22T03:39:59;98970.31;;;9.22;100.00
11830;BME280;5972;42.134;24.718;2023-11-22T03:42:27;98979.47;;;9.33;100.00
11830;BME280;5972;42.134;24.718;2023-11-22T03:44:54;98994.97;;;9.36;100.00
11830;BME280;5972;42.134;24.718;2023-11-22T03:47:22;98993.69;;;9.30;100.00
11830;BME280;5972;42.134;24.718;2023-11-22T03:49:50;98995.13;;;9.27;100.00
11830;BME280;5972;42.134;24.718;2023-11-22T03:52:17;98995.13;;;9.27;100.00
11830;BME280;5972;42.134;24.718;2023-11-22T03:54:44;98986.06;;;9.19;100.00
11830;BME280;5972;42.134;24.718;2023-11-22T03:57:11;98991.13;;;9.21;100.00
11830;BME280;5972;42.134;24.718;2023-11-22T03:59:37;98986.25;;;9.27;100.00
11830;BME280;5972;42.134;24.718;2023-11-22T04:02:07;98992.16;;;9.16;100.00
11830;BME280;5972;42.134;24.718;2023-11-22T04:04:34;98982.16;;;9.01;100.00
11830;BME280;5972;42.134;24.718;2023-11-22T04:07:03;98998.44;;;9.21;100.00
11830;BME280;5972;42.134;24.718;2023-11-22T04:09:30;99004.72;;;9.25;100.00
11830;BME280;5972;42.134;24.718;2023-11-22T04:11:58;99007.44;;;9.25;100.00
11830;BME280;5972;42.134;24.718;2023-11-22T04:14:25;99014.56;;;9.33;100.00
11830;BME280;5972;42.134;24.718;2023-11-22T04:16:52;99002.97;;;9.32;100.00
11830;BME280;5972;42.134;24.718;2023-11-22T04:19:19;98999.41;;;9.28;100.00
11830;BME280;5972;42.134;24.718;2023-11-22T04:21:46;98999.22;;;9.37;100.00
11830;BME280;5972;42.134;24.718;2023-11-22T04:24:14;98996.13;;;9.35;100.00
11830;BME280;5972;42.134;24.718;2023-11-22T04:26:43;98995.31;;;9.34;100.00
11830;BME280;5972;42.134;24.718;2023-11-22T04:29:10;99003.44;;;9.34;100.00
11830;BME280;5972;42.134;24.718;2023-11-22T04:31:37;99017.19;;;9.45;100.00
11830;BME280;5972;42.134;24.718;2023-11-22T04:34:04;99028.66;;;9.42;100.00
11830;BME280;5972;42.134;24.718;2023-11-22T04:36:31;99037.13;;;9.40;100.00
11830;BME280;5972;42.134;24.718;2023-11-22T04:38:58;99030.69;;;9.45;100.00
11830;BME280;5972;42.134;24.718;2023-11-22T04:41:27;99027.19;;;9.44;100.00
11830;BME280;5972;42.134;24.718;2023-11-22T04:43:54;99030.16;;;9.39;100.00
11830;BME280;5972;42.134;24.718;2023-11-22T04:46:20;99038.59;;;9.38;100.00
11830;BME280;5972;42.134;24.718;2023-11-22T04:48:47;99054.72;;;9.50;100.00
11830;BME280;5972;42.134;24.718;2023-11-22T04:51:16;99066.25;;;9.47;100.00
11830;BME280;5972;42.134;24.718;2023-11-22T04:53:44;99062.91;;;9.53;100.00
11830;BME280;5972;42.134;24.718;2023-11-22T04:56:11;99065.72;;;9.57;100.00
11830;BME280;5972;42.134;24.718;2023-11-22T04:58:39;99043.47;;;9.48;100.00
11830;BME280;5972;42.134;24.718;2023-11-22T05:01:06;99064.94;;;9.56;100.00
11830;BME280;5972;42.134;24.718;2023-11-22T05:03:35;99073.13;;;9.60;100.00
11830;BME280;5972;42.134;24.718;2023-11-22T05:06:03;99086.63;;;9.60;100.00
11830;BME280;5972;42.134;24.718;2023-11-22T05:08:30;99094.38;;;9.62;100.00
11830;BME280;5972;42.134;24.718;2023-11-22T05:10:57;99092.13;;;9.64;100.00
11830;BME280;5972;42.134;24.718;2023-11-22T05:13:24;99094.44;;;9.49;100.00
11830;BME280;5972;42.134;24.718;2023-11-22T05:15:52;99096.91;;;9.54;100.00
11830;BME280;5972;42.134;24.718;2023-11-22T05:18:19;99096.09;;;9.54;100.00
11830;BME280;5972;42.134;24.718;2023-11-22T05:20:47;99091.97;;;9.29;100.00
11830;BME280;5972;42.134;24.718;2023-11-22T05:23:14;99092.41;;;9.31;100.00
11830;BME280;5972;42.134;24.718;2023-11-22T05:25:41;99087.22;;;9.10;100.00
11830;BME280;5972;42.134;24.718;2023-11-22T05:28:08;99089.63;;;9.27;100.00
11830;BME280;5972;42.134;24.718;2023-11-22T05:30:55;99098.84;;;9.26;100.00
11830;BME280;5972;42.134;24.718;2023-11-22T05:33:21;99100.91;;;9.17;100.00
11830;BME280;5972;42.134;24.718;2023-11-22T05:35:49;99118.31;;;9.19;100.00
11830;BME280;5972;42.134;24.718;2023-11-22T05:38:16;99095.66;;;9.08;100.00
11830;BME280;5972;42.134;24.718;2023-11-22T05:40:44;99119.81;;;9.17;100.00
11830;BME280;5972;42.134;24.718;2023-11-22T05:43:11;99120.16;;;9.15;100.00
11830;BME280;5972;42.134;24.718;2023-11-22T05:45:37;99124.81;;;9.31;100.00
11830;BME280;5972;42.134;24.718;2023-11-22T05:48:06;99128.78;;;9.21;100.00
11830;BME280;5972;42.134;24.718;2023-11-22T05:50:33;99144.19;;;9.21;100.00
11830;BME280;5972;42.134;24.718;2023-11-22T05:53:00;99142.53;;;9.16;100.00
11830;BME280;5972;42.134;24.718;2023-11-22T05:55:26;99147.31;;;9.35;100.00
11830;BME280;5972;42.134;24.718;2023-11-22T05:57:54;99142.03;;;9.26;100.00
11830;BME280;5972;42.134;24.718;2023-11-22T06:00:21;99133.16;;;9.26;100.00
11830;BME280;5972;42.134;24.718;2023-11-22T06:02:48;99144.25;;;9.36;100.00
11830;BME280;5972;42.134;24.718;2023-11-22T06:05:17;99139.09;;;9.31;100.00
11830;BME280;5972;42.134;24.718;2023-11-22T06:07:43;99147.97;;;9.32;100.00
11830;BME280;5972;42.134;24.718;2023-11-22T06:10:10;99154.38;;;9.39;100.00
11830;BME280;5972;42.134;24.718;2023-11-22T06:12:38;99145.38;;;9.35;100.00
11830;BME280;5972;42.134;24.718;2023-11-22T06:15:05;99136.75;;;9.30;100.00
11830;BME280;5972;42.134;24.718;2023-11-22T06:17:33;99140.41;;;9.37;100.00
11830;BME280;5972;42.134;24.718;2023-11-22T06:20:00;99151.41;;;9.44;100.00
11830;BME280;5972;42.134;24.718;2023-11-22T06:22:30;99145.09;;;9.52;100.00
11830;BME280;5972;42.134;24.718;2023-11-22T06:24:57;99147.53;;;9.57;100.00
11830;BME280;5972;42.134;24.718;2023-11-22T06:27:24;99152.31;;;9.64;100.00
11830;BME280;5972;42.134;24.718;2023-11-22T06:29:51;99151.31;;;9.69;100.00
11830;BME280;5972;42.134;24.718;2023-11-22T06:32:18;99170.38;;;9.76;100.00
11830;BME280;5972;42.134;24.718;2023-11-22T06:34:45;99178.47;;;9.76;100.00
11830;BME280;5972;42.134;24.718;2023-11-22T06:37:12;99162.28;;;9.76;100.00
11830;BME280;5972;42.134;24.718;2023-11-22T06:39:40;99172.50;;;9.98;100.00
11830;BME280;5972;42.134;24.718;2023-11-22T06:42:07;99182.28;;;10.02;100.00
11830;BME280;5972;42.134;24.718;2023-11-22T06:44:34;99187.84;;;10.10;100.00
11830;BME280;5972;42.134;24.718;2023-11-22T06:47:01;99195.63;;;10.11;100.00
11830;BME280;5972;42.134;24.718;2023-11-22T06:49:27;99198.16;;;10.20;100.00
11830;BME280;5972;42.134;24.718;2023-11-22T06:51:54;99194.06;;;10.26;100.00
11830;BME280;5972;42.134;24.718;2023-11-22T06:54:21;99202.72;;;10.31;100.00
11830;BME280;5972;42.134;24.718;2023-11-22T06:56:50;99198.59;;;10.37;100.00
11830;BME280;5972;42.134;24.718;2023-11-22T06:59:17;99171.94;;;10.36;100.00
11830;BME280;5972;42.134;24.718;2023-11-22T07:01:45;99214.22;;;10.60;100.00
11830;BME280;5972;42.134;24.718;2023-11-22T07:04:12;99213.44;;;10.59;100.00
11830;BME280;5972;42.134;24.718;2023-11-22T07:06:39;99216.91;;;10.60;100.00
11830;BME280;5972;42.134;24.718;2023-11-22T07:09:08;99194.16;;;10.45;100.00
11830;BME280;5972;42.134;24.718;2023-11-22T07:11:36;99183.00;;;10.31;100.00
11830;BME280;5972;42.134;24.718;2023-11-22T07:14:05;99189.19;;;10.47;100.00
11830;BME280;5972;42.134;24.718;2023-11-22T07:16:32;99179.84;;;10.45;100.00
11830;BME280;5972;42.134;24.718;2023-11-22T07:18:59;99192.66;;;10.63;100.00
11830;BME280;5972;42.134;24.718;2023-11-22T07:21:28;99198.66;;;10.72;100.00
11830;BME280;5972;42.134;24.718;2023-11-22T07:23:55;99201.09;;;10.77;100.00
11830;BME280;5972;42.134;24.718;2023-11-22T07:26:22;99207.13;;;10.87;100.00
11830;BME280;5972;42.134;24.718;2023-11-22T07:28:49;99205.69;;;10.93;100.00
11830;BME280;5972;42.134;24.718;2023-11-22T07:31:17;99203.59;;;11.02;100.00
11830;BME280;5972;42.134;24.718;2023-11-22T07:33:44;99212.03;;;11.00;100.00
11830;BME280;5972;42.134;24.718;2023-11-22T07:36:11;99207.75;;;10.99;100.00
11830;BME280;5972;42.134;24.718;2023-11-22T07:38:40;99209.41;;;11.04;100.00
11830;BME280;5972;42.134;24.718;2023-11-22T07:41:08;99218.03;;;11.09;100.00
11830;BME280;5972;42.134;24.718;2023-11-22T07:43:35;99207.38;;;11.16;100.00
11830;BME280;5972;42.134;24.718;2023-11-22T07:46:05;99208.28;;;11.05;100.00
11830;BME280;5972;42.134;24.718;2023-11-22T07:48:35;99223.09;;;11.11;100.00
11830;BME280;5972;42.134;24.718;2023-11-22T07:51:03;99211.03;;;10.89;100.00
11830;BME280;5972;42.134;24.718;2023-11-22T07:53:31;99230.31;;;11.03;100.00
11830;BME280;5972;42.134;24.718;2023-11-22T07:55:59;99222.72;;;10.93;100.00
11830;BME280;5972;42.134;24.718;2023-11-22T07:58:30;99225.00;;;10.91;100.00
11830;BME280;5972;42.134;24.718;2023-11-22T08:00:58;99226.59;;;10.92;100.00
11830;BME280;5972;42.134;24.718;2023-11-22T08:03:25;99226.41;;;10.85;100.00
11830;BME280;5972;42.134;24.718;2023-11-22T08:05:53;99229.91;;;10.86;100.00
11830;BME280;5972;42.134;24.718;2023-11-22T08:08:21;99224.84;;;10.84;100.00
11830;BME280;5972;42.134;24.718;2023-11-22T08:10:48;99236.53;;;10.88;100.00
11830;BME280;5972;42.134;24.718;2023-11-22T08:13:17;99231.03;;;10.84;100.00
11830;BME280;5972;42.134;24.718;2023-11-22T08:15:45;99233.25;;;10.98;100.00
11830;BME280;5972;42.134;24.718;2023-11-22T08:18:13;99236.13;;;11.05;100.00
11830;BME280;5972;42.134;24.718;2023-11-22T08:20:41;99235.22;;;10.98;100.00
11830;BME280;5972;42.134;24.718;2023-11-22T08:23:10;99230.31;;;11.03;100.00
11830;BME280;5972;42.134;24.718;2023-11-22T08:25:38;99236.25;;;10.93;100.00
11830;BME280;5972;42.134;24.718;2023-11-22T08:28:05;99225.00;;;10.91;100.00
11830;BME280;5972;42.134;24.718;2023-11-22T08:30:33;99229.34;;;10.96;100.00
11830;BME280;5972;42.134;24.718;2023-11-22T08:33:01;99228.34;;;11.04;100.00
11830;BME280;5972;42.134;24.718;2023-11-22T08:35:28;99221.94;;;10.93;100.00
11830;BME280;5972;42.134;24.718;2023-11-22T08:37:55;99235.72;;;11.03;100.00
11830;BME280;5972;42.134;24.718;2023-11-22T08:40:25;99230.44;;;11.10;100.00
11830;BME280;5972;42.134;24.718;2023-11-22T08:42:52;99246.34;;;11.12;100.00
11830;BME280;5972;42.134;24.718;2023-11-22T08:45:19;99241.78;;;11.16;100.00
11830;BME280;5972;42.134;24.718;2023-11-22T08:47:46;99246.63;;;11.26;100.00
11830;BME280;5972;42.134;24.718;2023-11-22T08:50:13;99244.09;;;11.33;100.00
11830;BME280;5972;42.134;24.718;2023-11-22T08:52:41;99232.97;;;11.38;100.00
11830;BME280;5972;42.134;24.718;2023-11-22T08:55:08;99236.06;;;11.37;100.00
11830;BME280;5972;42.134;24.718;2023-11-22T08:57:37;99231.56;;;11.25;100.00
11830;BME280;5972;42.134;24.718;2023-11-22T09:00:05;99236.25;;;11.28;100.00
11830;BME280;5972;42.134;24.718;2023-11-22T09:02:34;99259.06;;;11.46;100.00
11830;BME280;5972;42.134;24.718;2023-11-22T09:05:01;99239.38;;;11.49;100.00
11830;BME280;5972;42.134;24.718;2023-11-22T09:07:30;99240.78;;;11.59;100.00
11830;BME280;5972;42.134;24.718;2023-11-22T09:09:58;99231.25;;;11.49;100.00
11830;BME280;5972;42.134;24.718;2023-11-22T09:12:25;99233.41;;;11.59;100.00
11830;BME280;5972;42.134;24.718;2023-11-22T09:14:54;99235.06;;;11.64;100.00
11830;BME280;5972;42.134;24.718;2023-11-22T09:17:20;99245.06;;;11.79;100.00
11830;BME280;5972;42.134;24.718;2023-11-22T09:19:47;99250.75;;;11.93;100.00
11830;BME280;5972;42.134;24.718;2023-11-22T09:22:15;99245.56;;;11.85;100.00
11830;BME280;5972;42.134;24.718;2023-11-22T09:24:43;99249.69;;;11.79;100.00
11830;BME280;5972;42.134;24.718;2023-11-22T09:27:11;99241.22;;;11.80;100.00
11830;BME280;5972;42.134;24.718;2023-11-22T09:29:42;99252.81;;;12.00;100.00
11830;BME280;5972;42.134;24.718;2023-11-22T09:32:10;99237.47;;;12.07;100.00
11830;BME280;5972;42.134;24.718;2023-11-22T09:34:38;99260.59;;;12.01;100.00
11830;BME280;5972;42.134;24.718;2023-11-22T09:37:05;99253.00;;;12.11;100.00
11830;BME280;5972;42.134;24.718;2023-11-22T09:39:33;99245.88;;;12.02;100.00
11830;BME280;5972;42.134;24.718;2023-11-22T09:42:00;99255.91;;;12.21;100.00
11830;BME280;5972;42.134;24.718;2023-11-22T09:44:28;99258.78;;;12.32;100.00
11830;BME280;5972;42.134;24.718;2023-11-22T09:46:55;99234.50;;;12.16;100.00
11830;BME280;5972;42.134;24.718;2023-11-22T09:49:25;99257.91;;;12.47;100.00
11830;BME280;5972;42.134;24.718;2023-11-22T09:51:57;99255.50;;;12.42;100.00
11830;BME280;5972;42.134;24.718;2023-11-22T09:54:28;99260.13;;;12.64;100.00
11830;BME280;5972;42.134;24.718;2023-11-22T09:56:58;99258.56;;;12.63;100.00
11830;BME280;5972;42.134;24.718;2023-11-22T09:59:27;99263.03;;;12.52;100.00
11830;BME280;5972;42.134;24.718;2023-11-22T10:01:55;99256.50;;;12.57;100.00
11830;BME280;5972;42.134;24.718;2023-11-22T10:04:26;99259.44;;;12.71;100.00
11830;BME280;5972;42.134;24.718;2023-11-22T10:06:57;99250.44;;;12.89;100.00
11830;BME280;5972;42.134;24.718;2023-11-22T10:09:27;99246.94;;;12.89;100.00
11830;BME280;5972;42.134;24.718;2023-11-22T10:11:58;99253.19;;;12.93;100.00
11830;BME280;5972;42.134;24.718;2023-11-22T10:14:27;99244.97;;;13.12;100.00
11830;BME280;5972;42.134;24.718;2023-11-22T10:16:58;99235.13;;;13.04;100.00
11830;BME280;5972;42.134;24.718;2023-11-22T10:19:27;99245.91;;;13.23;100.00
11830;BME280;5972;42.134;24.718;2023-11-22T10:22:05;99243.16;;;13.20;100.00
11830;BME280;5972;42.134;24.718;2023-11-22T10:24:33;99246.66;;;13.20;100.00
11830;BME280;5972;42.134;24.718;2023-11-22T10:27:00;99246.19;;;13.15;100.00
11830;BME280;5972;42.134;24.718;2023-11-22T10:29:28;99240.19;;;13.32;100.00
11830;BME280;5972;42.134;24.718;2023-11-22T10:31:55;99235.81;;;13.24;100.00
11830;BME280;5972;42.134;24.718;2023-11-22T10:34:24;99246.88;;;13.38;100.00
11830;BME280;5972;42.134;24.718;2023-11-22T10:36:55;99247.59;;;13.31;100.00
11830;BME280;5972;42.134;24.718;2023-11-22T10:39:22;99241.69;;;13.26;100.00
11830;BME280;5972;42.134;24.718;2023-11-22T10:41:51;99246.56;;;13.13;100.00
11830;BME280;5972;42.134;24.718;2023-11-22T10:44:20;99249.72;;;13.19;100.00
11830;BME280;5972;42.134;24.718;2023-11-22T10:46:48;99243.47;;;13.15;100.00
11830;BME280;5972;42.134;24.718;2023-11-22T10:49:16;99243.38;;;13.38;100.00
11830;BME280;5972;42.134;24.718;2023-11-22T10:51:44;99235.13;;;13.30;100.00
11830;BME280;5972;42.134;24.718;2023-11-22T10:54:18;99241.75;;;13.33;100.00
11830;BME280;5972;42.134;24.718;2023-11-22T10:56:51;99238.13;;;13.22;100.00
11830;BME280;5972;42.134;24.718;2023-11-22T10:59:22;99252.31;;;13.38;100.00
11830;BME280;5972;42.134;24.718;2023-11-22T11:01:55;99247.38;;;13.47;100.00
11830;BME280;5972;42.134;24.718;2023-11-22T11:04:27;99243.56;;;13.52;100.00
11830;BME280;5972;42.134;24.718;2023-11-22T11:06:56;99261.56;;;13.63;100.00
11830;BME280;5972;42.134;24.718;2023-11-22T11:09:26;99227.38;;;13.62;100.00
11830;BME280;5972;42.134;24.718;2023-11-22T11:11:58;99219.38;;;13.77;100.00
11830;BME280;5972;42.134;24.718;2023-11-22T11:14:25;99248.53;;;14.16;100.00
11830;BME280;5972;42.134;24.718;2023-11-22T11:16:53;99251.94;;;14.06;100.00
11830;BME280;5972;42.134;24.718;2023-11-22T11:19:24;99261.34;;;14.16;100.00
11830;BME280;5972;42.134;24.718;2023-11-22T11:21:51;99267.72;;;13.94;100.00
11830;BME280;5972;42.134;24.718;2023-11-22T11:24:18;99274.84;;;14.05;100.00
11830;BME280;5972;42.134;24.718;2023-11-22T11:26:49;99278.00;;;14.07;100.00
11830;BME280;5972;42.134;24.718;2023-11-22T11:29:30;99273.38;;;14.11;100.00
11830;BME280;5972;42.134;24.718;2023-11-22T11:31:58;99276.41;;;14.03;100.00
11830;BME280;5972;42.134;24.718;2023-11-22T11:34:26;99270.28;;;14.13;100.00
11830;BME280;5972;42.134;24.718;2023-11-22T11:36:55;99276.84;;;14.08;100.00
11830;BME280;5972;42.134;24.718;2023-11-22T11:39:25;99272.44;;;13.97;100.00
11830;BME280;5972;42.134;24.718;2023-11-22T11:42:09;99272.91;;;14.06;100.00
11830;BME280;5972;42.134;24.718;2023-11-22T11:44:36;99271.00;;;14.10;100.00
11830;BME280;5972;42.134;24.718;2023-11-22T11:47:13;99263.81;;;14.28;100.00
11830;BME280;5972;42.134;24.718;2023-11-22T11:49:40;99268.19;;;14.36;100.00
11830;BME280;5972;42.134;24.718;2023-11-22T11:52:07;99247.28;;;14.44;100.00
11830;BME280;5972;42.134;24.718;2023-11-22T11:54:34;99272.88;;;14.83;100.00
11830;BME280;5972;42.134;24.718;2023-11-22T11:57:02;99261.25;;;14.86;100.00
11830;BME280;5972;42.134;24.718;2023-11-22T11:59:30;99265.03;;;14.75;100.00
11830;BME280;5972;42.134;24.718;2023-11-22T12:01:59;99281.53;;;14.96;100.00
11830;BME280;5972;42.134;24.718;2023-11-22T12:04:26;99283.66;;;15.20;100.00
11830;BME280;5972;42.134;24.718;2023-11-22T12:06:53;99280.19;;;15.27;100.00
11830;BME280;5972;42.134;24.718;2023-11-22T12:09:24;99274.81;;;15.41;100.00
11830;BME280;5972;42.134;24.718;2023-11-22T12:11:59;99236.66;;;15.37;100.00
11830;BME280;5972;42.134;24.718;2023-11-22T12:14:30;99263.72;;;15.82;100.00
11830;BME280;5972;42.134;24.718;2023-11-22T12:16:58;99258.59;;;15.62;100.00
11830;BME280;5972;42.134;24.718;2023-11-22T12:19:27;99255.38;;;15.50;100.00
11830;BME280;5972;42.134;24.718;2023-11-22T12:21:56;99257.84;;;15.65;100.00
11830;BME280;5972;42.134;24.718;2023-11-22T12:24:24;99258.19;;;15.60;100.00
11830;BME280;5972;42.134;24.718;2023-11-22T12:26:51;99260.41;;;15.40;100.00
11830;BME280;5972;42.134;24.718;2023-11-22T12:29:20;99263.53;;;15.43;100.00
11830;BME280;5972;42.134;24.718;2023-11-22T12:31:51;99253.78;;;15.45;100.00
11830;BME280;5972;42.134;24.718;2023-11-22T12:34:21;99245.94;;;15.29;100.00
11830;BME280;5972;42.134;24.718;2023-11-22T12:36:49;99256.03;;;15.25;100.00
11830;BME280;5972;42.134;24.718;2023-11-22T12:39:16;99265.50;;;15.49;100.00
11830;BME280;5972;42.134;24.718;2023-11-22T12:41:44;99250.22;;;15.30;100.00
11830;BME280;5972;42.134;24.718;2023-11-22T12:44:11;99262.75;;;15.46;100.00
11830;BME280;5972;42.134;24.718;2023-11-22T12:46:46;99274.88;;;15.48;100.00
11830;BME280;5972;42.134;24.718;2023-11-22T12:49:16;99286.59;;;15.56;100.00
11830;BME280;5972;42.134;24.718;2023-11-22T12:51:48;99294.00;;;15.52;100.00
11830;BME280;5972;42.134;24.718;2023-11-22T12:54:15;99293.25;;;15.58;100.00
11830;BME280;5972;42.134;24.718;2023-11-22T12:56:45;99294.22;;;15.32;100.00
11830;BME280;5972;42.134;24.718;2023-11-22T12:59:12;99294.22;;;15.32;100.00